createdAt,value
2022-09-13T00:01:59.339Z,8.69
2022-09-13T00:07:01.121Z,8.66
2022-09-13T00:12:03.218Z,8.71
2022-09-13T00:17:04.971Z,8.62
2022-09-13T00:22:06.849Z,8.55
2022-09-13T00:27:08.667Z,8.52
2022-09-13T00:32:10.516Z,8.55
2022-09-13T00:37:12.667Z,8.56
2022-09-13T00:42:14.975Z,8.57
2022-09-13T00:47:26.620Z,8.44
2022-09-13T00:52:32.700Z,8.41
2022-09-13T00:57:36.734Z,8.38
2022-09-13T01:02:46.676Z,8.35
2022-09-13T01:07:48.609Z,8.45
2022-09-13T01:13:01.995Z,8.42
2022-09-13T01:18:05.349Z,8.36
2022-09-13T01:23:16.441Z,8.29
2022-09-13T01:28:37.989Z,8.26
2022-09-13T01:33:58.442Z,8.11
2022-09-13T01:39:08.427Z,8.06
2022-09-13T01:44:43.950Z,8.06
2022-09-13T01:50:17.967Z,7.98
2022-09-13T01:55:23.425Z,7.95
2022-09-13T02:00:25.199Z,7.87
2022-09-13T02:05:56.860Z,7.87
2022-09-13T02:11:06.271Z,7.92
2022-09-13T02:16:26.745Z,7.93
2022-09-13T02:21:38.473Z,7.86
2022-09-13T02:26:41.904Z,7.87
2022-09-13T02:31:57.329Z,7.90
2022-09-13T02:37:01.583Z,7.92
2022-09-13T02:42:17.600Z,7.98
2022-09-13T02:47:31.345Z,8.05
2022-09-13T02:52:42.068Z,8.13
2022-09-13T02:57:58.956Z,8.20
2022-09-13T03:03:04.618Z,8.20
2022-09-13T03:08:10.839Z,8.23
2022-09-13T03:13:33.318Z,8.18
2022-09-13T03:18:55.277Z,8.11
2022-09-13T03:24:25.375Z,8.06
2022-09-13T03:29:36.943Z,8.08
2022-09-13T03:34:48.102Z,8.12
2022-09-13T03:40:09.120Z,8.08
2022-09-13T03:45:12.782Z,8.13
2022-09-13T03:50:21.305Z,8.22
2022-09-13T03:55:23.809Z,8.17
2022-09-13T04:00:25.644Z,8.13
2022-09-13T04:05:27.367Z,8.11
2022-09-13T04:10:31.796Z,8.07
2022-09-13T04:15:33.564Z,8.08
2022-09-13T04:20:36.035Z,8.09
2022-09-13T04:25:40.885Z,8.08
2022-09-13T04:30:45.327Z,8.07
2022-09-13T04:35:47.272Z,8.09
2022-09-13T04:40:53.753Z,8.12
2022-09-13T04:46:01.143Z,8.17
2022-09-13T04:51:06.352Z,8.24
2022-09-13T04:56:09.630Z,8.28
2022-09-13T05:01:11.974Z,8.33
2022-09-13T05:06:19.596Z,8.46
2022-09-13T05:11:23.587Z,8.64
2022-09-13T05:16:27.566Z,8.88
2022-09-13T05:21:31.097Z,9.04
2022-09-13T05:26:32.945Z,9.15
2022-09-13T05:31:38.344Z,9.23
2022-09-13T05:36:41.460Z,9.37
2022-09-13T05:41:44.065Z,9.55
2022-09-13T05:46:49.367Z,9.76
2022-09-13T05:51:51.113Z,10.18
2022-09-13T05:56:54.341Z,10.85
2022-09-13T06:01:56.138Z,11.51
2022-09-13T06:06:57.902Z,12.03
2022-09-13T06:11:59.696Z,12.53
2022-09-13T06:17:01.478Z,13.22
2022-09-13T06:22:03.251Z,13.86
2022-09-13T06:27:05.924Z,14.46
2022-09-13T06:32:07.646Z,14.81
2022-09-13T06:37:09.367Z,15.09
2022-09-13T06:42:11.056Z,15.22
2022-09-13T06:47:15.026Z,15.22
2022-09-13T06:52:16.830Z,15.16
2022-09-13T06:57:18.611Z,15.32
2022-09-13T07:02:20.631Z,15.58
2022-09-13T07:07:22.579Z,15.89
2022-09-13T07:12:24.263Z,15.85
2022-09-13T07:17:31.271Z,15.81
2022-09-13T07:22:33.394Z,15.92
2022-09-13T07:27:35.115Z,16.21
2022-09-13T07:32:36.849Z,16.53
2022-09-13T07:37:38.555Z,17.25
2022-09-13T07:42:40.314Z,17.48
2022-09-13T07:47:42.710Z,17.49
2022-09-13T07:52:44.552Z,17.27
2022-09-13T07:57:46.270Z,17.02
2022-09-13T08:02:48.068Z,16.92
2022-09-13T08:07:49.825Z,16.88
2022-09-13T08:12:51.573Z,16.47
2022-09-13T08:17:56.105Z,15.88
2022-09-13T08:22:57.871Z,15.52
2022-09-13T08:27:59.769Z,15.42
2022-09-13T08:33:02.694Z,15.50
2022-09-13T08:38:05.465Z,15.69
2022-09-13T08:43:15.549Z,16.16
2022-09-13T08:48:23.123Z,16.93
2022-09-13T08:53:32.680Z,17.32
2022-09-13T08:58:46.834Z,17.50
2022-09-13T09:04:26.845Z,17.42
2022-09-13T09:09:32.504Z,17.40
2022-09-13T09:14:39.259Z,18.44
2022-09-13T09:19:46.560Z,18.72
2022-09-13T09:24:55.114Z,18.63
2022-09-13T09:30:00.673Z,18.98
2022-09-13T09:35:20.649Z,19.20
2022-09-13T09:40:22.443Z,19.57
2022-09-13T09:45:24.218Z,20.62
2022-09-13T09:50:31.090Z,20.41
2022-09-13T09:55:33.635Z,20.54
2022-09-13T10:00:37.807Z,21.41
2022-09-13T10:05:39.705Z,21.95
2022-09-13T10:10:44.499Z,21.33
2022-09-13T10:16:02.859Z,20.69
2022-09-13T10:21:24.875Z,20.41
2022-09-13T10:26:26.887Z,21.11
2022-09-13T10:31:34.811Z,21.50
2022-09-13T10:36:53.485Z,21.28
2022-09-13T10:42:09.562Z,20.71
2022-09-13T10:47:20.333Z,20.49
2022-09-13T10:52:41.974Z,20.66
2022-09-13T10:57:44.387Z,20.30
2022-09-13T11:03:17.105Z,20.21
2022-09-13T11:08:40.715Z,20.43
2022-09-13T11:14:22.606Z,21.29
2022-09-13T11:19:58.662Z,22.02
2022-09-13T11:25:24.194Z,23.02
2022-09-13T11:30:31.258Z,25.73
2022-09-13T11:35:48.236Z,27.38
2022-09-13T11:41:22.932Z,24.91
2022-09-13T11:46:52.849Z,24.33
2022-09-13T11:52:20.626Z,23.39
2022-09-13T11:57:40.756Z,22.91
2022-09-13T12:02:49.311Z,22.32
2022-09-13T12:08:00.183Z,22.21
2022-09-13T12:13:03.736Z,22.74
2022-09-13T12:18:20.341Z,23.39
2022-09-13T12:23:32.658Z,23.13
2022-09-13T12:28:56.342Z,22.86
2022-09-13T12:33:59.797Z,23.08
2022-09-13T12:39:07.914Z,22.93
2022-09-13T12:44:25.528Z,22.73
2022-09-13T12:50:01.734Z,22.65
2022-09-13T12:55:47.659Z,22.09
2022-09-13T13:01:17.355Z,22.02
2022-09-13T13:06:29.166Z,22.00
2022-09-13T13:11:44.143Z,21.62
2022-09-13T13:16:48.395Z,21.82
2022-09-13T13:21:50.295Z,22.99
2022-09-13T13:26:56.611Z,23.21
2022-09-13T13:32:01.201Z,24.50
2022-09-13T13:37:22.355Z,27.79
2022-09-13T13:42:31.705Z,26.51
2022-09-13T13:47:33.967Z,26.40
2022-09-13T13:52:51.197Z,24.63
2022-09-13T13:58:10.284Z,22.81
2022-09-13T14:03:26.837Z,22.30
2022-09-13T14:08:37.909Z,22.32
2022-09-13T14:13:44.643Z,22.20
2022-09-13T14:19:14.638Z,22.22
2022-09-13T14:24:24.765Z,22.51
2022-09-13T14:29:27.488Z,22.76
2022-09-13T14:34:35.870Z,22.97
2022-09-13T14:39:37.619Z,23.16
2022-09-13T14:44:44.621Z,23.05
2022-09-13T14:49:54.351Z,23.08
2022-09-13T14:55:09.880Z,23.06
2022-09-13T15:00:14.633Z,23.07
2022-09-13T15:05:19.183Z,23.27
2022-09-13T15:10:24.095Z,23.27
2022-09-13T15:15:33.420Z,23.18
2022-09-13T15:20:59.036Z,23.08
2022-09-13T15:26:19.050Z,23.07
2022-09-13T15:31:25.420Z,22.88
2022-09-13T15:36:29.893Z,22.63
2022-09-13T15:41:34.067Z,22.30
2022-09-13T15:46:52.349Z,22.08
2022-09-13T15:51:56.497Z,21.86
2022-09-13T15:56:58.799Z,21.81
2022-09-13T16:02:17.471Z,21.80
2022-09-13T16:07:19.904Z,21.97
2022-09-13T16:12:24.623Z,21.99
2022-09-13T16:17:27.845Z,21.83
2022-09-13T16:22:29.621Z,21.90
2022-09-13T16:27:34.154Z,21.73
2022-09-13T16:32:36.031Z,21.53
2022-09-13T16:37:40.277Z,21.34
2022-09-13T16:42:42.047Z,21.00
2022-09-13T16:47:43.987Z,20.67
2022-09-13T16:52:45.749Z,20.43
2022-09-13T16:57:50.239Z,20.28
2022-09-13T17:02:52.067Z,20.11
2022-09-13T17:07:53.858Z,19.99
2022-09-13T17:12:56.318Z,19.76
2022-09-13T17:17:59.164Z,19.52
2022-09-13T17:23:01.262Z,19.31
2022-09-13T17:28:03.391Z,18.79
2022-09-13T17:33:06.001Z,18.08
2022-09-13T17:38:07.824Z,17.52
2022-09-13T17:43:09.707Z,17.02
2022-09-13T17:48:11.482Z,16.67
2022-09-13T17:53:13.257Z,16.45
2022-09-13T17:58:17.288Z,16.18
2022-09-13T18:03:19.216Z,15.92
2022-09-13T18:08:20.986Z,16.00
2022-09-13T18:13:22.713Z,15.80
2022-09-13T18:18:24.466Z,15.49
2022-09-13T18:23:28.287Z,15.25
2022-09-13T18:28:31.060Z,15.07
2022-09-13T18:33:34.269Z,14.88
2022-09-13T18:38:45.034Z,14.68
2022-09-13T18:43:52.914Z,14.59
2022-09-13T18:48:57.795Z,14.51
2022-09-13T18:54:00.965Z,14.43
2022-09-13T18:59:06.864Z,14.47
2022-09-13T19:04:17.832Z,14.38
2022-09-13T19:09:21.066Z,14.25
2022-09-13T19:14:26.059Z,14.13
2022-09-13T19:19:27.911Z,14.11
2022-09-13T19:24:29.817Z,14.13
2022-09-13T19:29:31.770Z,14.18
2022-09-13T19:34:33.496Z,14.07
2022-09-13T19:39:35.276Z,13.97
2022-09-13T19:44:37.518Z,14.16
2022-09-13T19:49:40.581Z,14.11
2022-09-13T19:54:42.376Z,13.98
2022-09-13T19:59:44.865Z,13.87
2022-09-13T20:04:48.535Z,13.78
2022-09-13T20:09:50.981Z,13.75
2022-09-13T20:14:52.839Z,13.79
2022-09-13T20:19:54.947Z,13.79
2022-09-13T20:24:57.756Z,13.75
2022-09-13T20:30:00.205Z,13.70
2022-09-13T20:35:02.037Z,13.80
2022-09-13T20:40:04.935Z,13.65
2022-09-13T20:45:07.525Z,13.49
2022-09-13T20:50:10.045Z,13.38
2022-09-13T20:55:12.223Z,13.32
2022-09-13T21:00:14.568Z,13.32
2022-09-13T21:05:16.374Z,13.31
2022-09-13T21:10:18.727Z,13.30
2022-09-13T21:15:20.629Z,13.27
2022-09-13T21:20:22.586Z,13.27
2022-09-13T21:25:25.709Z,13.27
2022-09-13T21:30:27.496Z,13.25
2022-09-13T21:35:29.216Z,13.27
2022-09-13T21:40:31.016Z,13.31
2022-09-13T21:45:32.765Z,13.32
2022-09-13T21:50:34.488Z,13.43
2022-09-13T21:55:39.932Z,13.45
2022-09-13T22:00:41.683Z,13.44
2022-09-13T22:05:43.403Z,13.40
2022-09-13T22:10:45.131Z,13.35
2022-09-13T22:15:46.865Z,13.46
2022-09-13T22:20:48.593Z,13.46
2022-09-13T22:25:52.127Z,13.57
2022-09-13T22:30:53.759Z,13.75
2022-09-13T22:36:03.607Z,13.66
2022-09-13T22:41:11.487Z,13.49
2022-09-13T22:46:20.046Z,13.38
2022-09-13T22:51:22.732Z,13.30
2022-09-13T22:56:30.251Z,13.20
2022-09-13T23:01:31.984Z,13.13
2022-09-13T23:06:34.707Z,13.12
2022-09-13T23:11:38.326Z,13.17
2022-09-13T23:16:43.306Z,13.13
2022-09-13T23:21:45.598Z,13.10
2022-09-13T23:26:47.795Z,13.07
2022-09-13T23:31:50.627Z,13.12
2022-09-13T23:36:52.517Z,13.20
2022-09-13T23:41:54.083Z,13.22
2022-09-13T23:46:55.810Z,13.24
2022-09-13T23:51:57.377Z,13.28
2022-09-13T23:56:58.977Z,13.42
